createdAt,value
2017-03-21T00:00:58.578Z,957.82
2017-03-21T00:02:07.583Z,957.82
2017-03-21T00:03:16.606Z,957.9
2017-03-21T00:04:26.290Z,957.88
2017-03-21T00:05:35.378Z,957.87
2017-03-21T00:06:44.756Z,957.84
2017-03-21T00:07:53.522Z,957.89
2017-03-21T00:09:02.901Z,957.86
2017-03-21T00:10:12.591Z,957.84
2017-03-21T00:11:21.898Z,957.82
2017-03-21T00:12:30.605Z,957.81
2017-03-21T00:13:40.580Z,957.8
2017-03-21T00:14:49.299Z,957.79
2017-03-21T00:15:59.300Z,957.76
2017-03-21T00:17:08.678Z,957.75
2017-03-21T00:18:18.044Z,957.77
2017-03-21T00:19:27.425Z,957.79
2017-03-21T00:20:36.800Z,957.85
2017-03-21T00:21:45.552Z,957.85
2017-03-21T00:22:54.564Z,957.86
2017-03-21T00:24:04.545Z,957.83
2017-03-21T00:25:14.160Z,957.85
2017-03-21T00:26:23.167Z,957.87
2017-03-21T00:27:32.239Z,957.87
2017-03-21T00:28:41.622Z,957.78
2017-03-21T00:29:50.698Z,957.83
2017-03-21T00:31:00.080Z,957.82
2017-03-21T00:32:09.387Z,957.82
2017-03-21T00:33:18.150Z,957.83
2017-03-21T00:34:28.127Z,957.85
2017-03-21T00:35:37.139Z,957.83
2017-03-21T00:36:46.206Z,957.81
2017-03-21T00:37:55.604Z,957.81
2017-03-21T00:39:04.706Z,957.83
2017-03-21T00:40:14.998Z,957.79
2017-03-21T00:41:24.319Z,957.8
2017-03-21T00:42:33.388Z,957.79
2017-03-21T00:43:43.072Z,957.78
2017-03-21T00:44:52.443Z,957.75
2017-03-21T00:46:02.366Z,957.77
2017-03-21T00:47:11.138Z,957.77
2017-03-21T00:48:20.521Z,957.79
2017-03-21T00:49:30.199Z,957.79
2017-03-21T00:50:39.582Z,957.81
2017-03-21T00:51:48.349Z,957.84
2017-03-21T00:52:57.416Z,957.8
2017-03-21T00:54:07.105Z,957.81
2017-03-21T00:55:16.486Z,957.81
2017-03-21T00:56:25.244Z,957.8
2017-03-21T00:57:34.861Z,957.77
2017-03-21T00:58:44.228Z,957.8
2017-03-21T00:59:53.599Z,957.8
2017-03-21T01:01:02.667Z,957.83
2017-03-21T01:02:11.725Z,957.94
2017-03-21T01:03:20.788Z,957.86
2017-03-21T01:04:29.762Z,957.93
2017-03-21T01:05:39.432Z,957.83
2017-03-21T01:06:48.503Z,957.85
2017-03-21T01:07:57.263Z,957.86
2017-03-21T01:09:06.639Z,957.93
2017-03-21T01:10:16.321Z,957.82
2017-03-21T01:11:25.081Z,957.91
2017-03-21T01:12:34.135Z,957.8
2017-03-21T01:13:43.820Z,957.85
2017-03-21T01:14:52.903Z,957.81
2017-03-21T01:16:02.468Z,957.89
2017-03-21T01:17:11.175Z,957.89
2017-03-21T01:18:20.848Z,957.91
2017-03-21T01:19:31.144Z,957.88
2017-03-21T01:20:40.819Z,957.86
2017-03-21T01:21:49.564Z,957.8
2017-03-21T01:22:58.279Z,957.86
2017-03-21T01:24:07.960Z,957.84
2017-03-21T01:25:17.647Z,957.88
2017-03-21T01:26:27.024Z,957.86
2017-03-21T01:27:36.092Z,957.87
2017-03-21T01:28:45.781Z,957.88
2017-03-21T01:29:55.767Z,957.91
2017-03-21T01:31:04.821Z,957.94
2017-03-21T01:32:13.834Z,957.9
2017-03-21T01:33:23.513Z,957.93
2017-03-21T01:34:32.578Z,957.89
2017-03-21T01:35:41.314Z,957.92
2017-03-21T01:36:50.073Z,957.88
2017-03-21T01:37:58.836Z,957.9
2017-03-21T01:39:07.897Z,957.84
2017-03-21T01:40:16.922Z,957.83
2017-03-21T01:41:26.596Z,957.9
2017-03-21T01:42:35.355Z,957.89
2017-03-21T01:43:44.746Z,957.85
2017-03-21T01:44:55.027Z,957.89
2017-03-21T01:46:04.397Z,957.92
2017-03-21T01:47:13.768Z,957.91
2017-03-21T01:48:22.577Z,957.81
2017-03-21T01:49:32.886Z,957.84
2017-03-21T01:50:42.261Z,957.8
2017-03-21T01:51:51.279Z,957.81
2017-03-21T01:53:00.858Z,957.84
2017-03-21T01:54:11.158Z,957.85
2017-03-21T01:55:20.552Z,957.82
2017-03-21T01:56:29.620Z,957.81
2017-03-21T01:57:38.694Z,957.78
2017-03-21T01:58:48.363Z,957.77
2017-03-21T01:59:58.307Z,957.77
2017-03-21T02:01:07.081Z,957.72
2017-03-21T02:02:15.855Z,957.76
2017-03-21T02:03:25.533Z,957.8
2017-03-21T02:04:35.831Z,957.71
2017-03-21T02:05:44.812Z,957.78
2017-03-21T02:06:53.881Z,957.83
2017-03-21T02:08:02.950Z,957.76
2017-03-21T02:09:12.978Z,957.77
2017-03-21T02:10:22.967Z,957.81
2017-03-21T02:11:32.343Z,957.8
2017-03-21T02:12:41.715Z,957.75
2017-03-21T02:13:51.995Z,957.72
2017-03-21T02:15:01.976Z,957.72
2017-03-21T02:16:11.357Z,957.74
2017-03-21T02:17:20.430Z,957.79
2017-03-21T02:18:29.193Z,957.77
2017-03-21T02:19:39.126Z,957.71
2017-03-21T02:20:48.202Z,957.69
2017-03-21T02:21:56.970Z,957.77
2017-03-21T02:23:06.040Z,957.73
2017-03-21T02:24:15.409Z,957.78
2017-03-21T02:25:25.335Z,957.69
2017-03-21T02:26:34.109Z,957.78
2017-03-21T02:27:43.181Z,957.75
2017-03-21T02:28:52.565Z,957.74
2017-03-21T02:30:01.932Z,957.75
2017-03-21T02:31:11.254Z,957.8
2017-03-21T02:32:20.570Z,957.76
2017-03-21T02:33:29.634Z,957.79
2017-03-21T02:34:39.009Z,957.76
2017-03-21T02:35:48.377Z,957.75
2017-03-21T02:36:57.446Z,957.74
2017-03-21T02:38:06.825Z,957.76
2017-03-21T02:39:16.810Z,957.69
2017-03-21T02:40:26.799Z,957.77
2017-03-21T02:41:36.574Z,957.77
2017-03-21T02:42:45.646Z,957.8
2017-03-21T02:43:55.325Z,957.76
2017-03-21T02:45:04.342Z,957.75
2017-03-21T02:46:13.715Z,957.8
2017-03-21T02:47:23.027Z,957.8
2017-03-21T02:48:32.089Z,957.81
2017-03-21T02:49:41.429Z,957.83
2017-03-21T02:50:50.478Z,957.79
2017-03-21T02:51:59.800Z,957.73
2017-03-21T02:53:09.381Z,957.78
2017-03-21T02:54:19.068Z,957.76
2017-03-21T02:55:28.744Z,957.7
2017-03-21T02:56:37.498Z,957.73
2017-03-21T02:57:46.804Z,957.68
2017-03-21T02:58:56.739Z,957.73
2017-03-21T03:00:06.107Z,957.72
2017-03-21T03:01:15.423Z,957.73
2017-03-21T03:02:25.126Z,957.74
2017-03-21T03:03:34.334Z,957.73
2017-03-21T03:04:44.309Z,957.73
2017-03-21T03:05:53.977Z,957.76
2017-03-21T03:07:03.053Z,957.72
2017-03-21T03:08:12.688Z,957.68
2017-03-21T03:09:22.682Z,957.76
2017-03-21T03:10:32.071Z,957.72
2017-03-21T03:11:40.845Z,957.7
2017-03-21T03:12:49.923Z,957.63
2017-03-21T03:13:59.304Z,957.62
2017-03-21T03:15:08.999Z,957.65
2017-03-21T03:16:18.375Z,957.63
2017-03-21T03:17:28.250Z,957.69
2017-03-21T03:18:38.244Z,957.66
2017-03-21T03:19:47.918Z,957.67
2017-03-21T03:20:57.602Z,957.64
2017-03-21T03:22:06.369Z,957.64
2017-03-21T03:23:15.434Z,957.69
2017-03-21T03:24:24.762Z,957.69
2017-03-21T03:25:34.140Z,957.72
2017-03-21T03:26:43.816Z,957.69
2017-03-21T03:27:52.891Z,957.68
2017-03-21T03:29:02.868Z,957.7
2017-03-21T03:30:12.540Z,957.68
2017-03-21T03:31:21.554Z,957.65
2017-03-21T03:32:30.942Z,957.65
2017-03-21T03:33:40.939Z,957.68
2017-03-21T03:34:50.312Z,957.68
2017-03-21T03:35:59.635Z,957.68
2017-03-21T03:37:08.709Z,957.66
2017-03-21T03:38:18.085Z,957.64
2017-03-21T03:39:28.076Z,957.63
2017-03-21T03:40:44.616Z,957.64
2017-03-21T03:41:53.991Z,957.64
2017-03-21T03:43:03.689Z,957.66
2017-03-21T03:44:13.377Z,957.65
2017-03-21T03:45:23.063Z,957.6
2017-03-21T03:46:32.744Z,957.6
2017-03-21T03:47:41.513Z,957.71
2017-03-21T03:48:51.200Z,957.66
2017-03-21T03:50:00.263Z,957.68
2017-03-21T03:51:09.019Z,957.69
2017-03-21T03:52:17.783Z,957.65
2017-03-21T03:53:27.460Z,957.69
2017-03-21T03:54:36.533Z,957.7
2017-03-21T03:55:45.897Z,957.72
2017-03-21T03:56:54.974Z,957.68
2017-03-21T03:58:04.348Z,957.71
2017-03-21T03:59:14.038Z,957.72
2017-03-21T04:00:23.712Z,957.74
2017-03-21T04:01:32.493Z,957.75
2017-03-21T04:02:41.487Z,957.7
2017-03-21T04:03:51.478Z,957.69
2017-03-21T04:05:01.448Z,957.69
2017-03-21T04:06:10.155Z,957.72
2017-03-21T04:07:19.225Z,957.69
2017-03-21T04:08:28.293Z,957.74
2017-03-21T04:09:38.277Z,957.72
2017-03-21T04:10:48.251Z,957.71
2017-03-21T04:11:57.323Z,957.66
2017-03-21T04:13:06.697Z,957.67
2017-03-21T04:14:16.668Z,957.69
2017-03-21T04:15:26.338Z,957.69
2017-03-21T04:16:35.341Z,957.63
2017-03-21T04:17:44.705Z,957.62
2017-03-21T04:18:54.406Z,957.66
2017-03-21T04:20:04.026Z,957.66
2017-03-21T04:21:13.394Z,957.66
2017-03-21T04:22:22.438Z,957.69
2017-03-21T04:23:31.743Z,957.64
2017-03-21T04:24:41.079Z,957.64
2017-03-21T04:25:50.151Z,957.63
2017-03-21T04:26:59.207Z,957.68
2017-03-21T04:28:08.591Z,957.67
2017-03-21T04:29:18.474Z,957.67
2017-03-21T04:30:27.538Z,957.72
2017-03-21T04:31:36.899Z,957.72
2017-03-21T04:32:45.956Z,957.7
2017-03-21T04:33:55.020Z,957.71
2017-03-21T04:35:05.009Z,957.77
2017-03-21T04:36:14.067Z,957.74
2017-03-21T04:37:23.445Z,957.78
2017-03-21T04:38:32.256Z,957.8
2017-03-21T04:39:41.662Z,957.75
2017-03-21T04:40:51.028Z,957.9
2017-03-21T04:42:00.393Z,957.77
2017-03-21T04:43:09.457Z,957.81
2017-03-21T04:44:19.182Z,957.77
2017-03-21T04:45:28.847Z,957.86
2017-03-21T04:46:37.586Z,957.79
2017-03-21T04:47:46.651Z,957.73
2017-03-21T04:48:55.718Z,957.77
2017-03-21T04:50:04.789Z,957.79
2017-03-21T04:51:13.856Z,957.77
2017-03-21T04:52:23.223Z,957.76
2017-03-21T04:53:32.288Z,957.78
2017-03-21T04:54:41.369Z,957.83
2017-03-21T04:55:51.030Z,957.85
2017-03-21T04:57:00.082Z,957.84
2017-03-21T04:58:09.397Z,957.85
2017-03-21T04:59:19.590Z,957.83
2017-03-21T05:00:29.570Z,957.85
2017-03-21T05:01:38.637Z,957.92
2017-03-21T05:02:47.716Z,957.92
2017-03-21T05:03:57.090Z,957.95
2017-03-21T05:05:06.778Z,957.91
2017-03-21T05:06:15.531Z,957.97
2017-03-21T05:07:24.900Z,957.98
2017-03-21T05:08:33.951Z,957.94
2017-03-21T05:09:43.025Z,957.94
2017-03-21T05:10:53.010Z,957.95
2017-03-21T05:12:02.371Z,957.95
2017-03-21T05:13:11.392Z,957.94
2017-03-21T05:14:20.745Z,957.95
2017-03-21T05:15:30.062Z,957.97
2017-03-21T05:16:39.126Z,957.95
2017-03-21T05:17:48.186Z,957.97
2017-03-21T05:18:57.877Z,957.97
2017-03-21T05:20:07.241Z,957.98
2017-03-21T05:21:16.307Z,957.95
2017-03-21T05:22:25.680Z,957.99
2017-03-21T05:23:34.936Z,957.97
2017-03-21T05:24:45.158Z,958
2017-03-21T05:25:55.140Z,958.12
2017-03-21T05:27:04.197Z,958.07
2017-03-21T05:28:13.251Z,958.17
2017-03-21T05:29:22.271Z,958.15
2017-03-21T05:30:31.941Z,958.16
2017-03-21T05:31:40.952Z,958.18
2017-03-21T05:32:49.715Z,958.15
2017-03-21T05:33:58.789Z,958.16
2017-03-21T05:35:08.203Z,958.16
2017-03-21T05:36:17.278Z,958.18
2017-03-21T05:37:26.040Z,958.24
2017-03-21T05:38:35.699Z,958.18
2017-03-21T05:39:45.630Z,958.19
2017-03-21T05:40:55.613Z,958.19
2017-03-21T05:42:04.380Z,958.21
2017-03-21T05:43:13.751Z,958.24
2017-03-21T05:44:23.468Z,958.22
2017-03-21T05:45:33.453Z,958.31
2017-03-21T05:46:42.828Z,958.28
2017-03-21T05:47:51.874Z,958.3
2017-03-21T05:49:01.090Z,958.32
2017-03-21T05:50:10.766Z,958.35
2017-03-21T05:51:20.172Z,958.31
2017-03-21T05:52:29.398Z,958.28
2017-03-21T05:53:39.071Z,958.25
2017-03-21T05:54:48.437Z,958.23
2017-03-21T05:55:58.358Z,958.18
2017-03-21T05:57:07.132Z,958.16
2017-03-21T05:58:16.091Z,958.2
2017-03-21T05:59:25.771Z,958.13
2017-03-21T06:00:35.744Z,958.22
2017-03-21T06:01:44.810Z,958.23
2017-03-21T06:02:53.881Z,958.21
2017-03-21T06:04:03.235Z,958.28
2017-03-21T06:05:12.857Z,958.28
2017-03-21T06:06:21.905Z,958.28
2017-03-21T06:07:30.597Z,958.27
2017-03-21T06:08:39.918Z,958.31
2017-03-21T06:09:49.646Z,958.26
2017-03-21T06:10:59.347Z,958.28
2017-03-21T06:12:08.055Z,958.27
2017-03-21T06:13:17.669Z,958.23
2017-03-21T06:14:27.388Z,958.28
2017-03-21T06:15:36.461Z,958.35
2017-03-21T06:16:45.860Z,958.35
2017-03-21T06:17:54.569Z,958.32
2017-03-21T06:19:03.322Z,958.39
2017-03-21T06:20:12.334Z,958.37
2017-03-21T06:21:21.396Z,958.37
2017-03-21T06:22:30.148Z,958.32
2017-03-21T06:23:40.052Z,958.35
2017-03-21T06:24:49.070Z,958.35
2017-03-21T06:25:58.446Z,958.32
2017-03-21T06:27:07.214Z,958.36
2017-03-21T06:28:16.283Z,958.3
2017-03-21T06:29:26.254Z,958.34
2017-03-21T06:30:35.591Z,958.34
2017-03-21T06:31:45.756Z,958.37
2017-03-21T06:32:54.861Z,958.36
2017-03-21T06:34:03.629Z,958.36
2017-03-21T06:35:13.005Z,958.33
2017-03-21T06:36:22.766Z,958.38
2017-03-21T06:37:31.782Z,958.42
2017-03-21T06:38:41.495Z,958.5
2017-03-21T06:39:52.158Z,958.48
2017-03-21T06:41:01.705Z,958.45
2017-03-21T06:42:10.751Z,958.41
2017-03-21T06:43:19.768Z,958.4
2017-03-21T06:44:28.840Z,958.38
2017-03-21T06:45:38.216Z,958.42
2017-03-21T06:46:47.582Z,958.44
2017-03-21T06:47:56.644Z,958.43
2017-03-21T06:49:05.698Z,958.42
2017-03-21T06:50:14.721Z,958.41
2017-03-21T06:51:23.790Z,958.51
2017-03-21T06:52:32.558Z,958.52
2017-03-21T06:53:42.857Z,958.57
2017-03-21T06:54:52.223Z,958.58
2017-03-21T06:56:01.600Z,958.6
2017-03-21T06:57:10.362Z,958.62
2017-03-21T06:58:19.992Z,958.58
2017-03-21T06:59:29.973Z,958.62
2017-03-21T07:00:39.039Z,958.61
2017-03-21T07:01:48.107Z,958.61
2017-03-21T07:02:57.489Z,958.64
2017-03-21T07:04:07.176Z,958.64
2017-03-21T07:05:16.858Z,958.64
2017-03-21T07:06:26.227Z,958.67
2017-03-21T07:07:34.995Z,958.59
2017-03-21T07:08:44.681Z,958.64
2017-03-21T07:09:53.759Z,958.68
2017-03-21T07:11:03.134Z,958.65
2017-03-21T07:12:11.901Z,958.68
2017-03-21T07:13:20.673Z,958.67
2017-03-21T07:14:30.601Z,958.66
2017-03-21T07:15:39.342Z,958.71
2017-03-21T07:16:48.101Z,958.72
2017-03-21T07:17:57.163Z,958.75
2017-03-21T07:19:06.534Z,958.76
2017-03-21T07:20:15.933Z,958.87
2017-03-21T07:21:25.002Z,958.85
2017-03-21T07:22:33.762Z,958.81
2017-03-21T07:23:42.838Z,958.9
2017-03-21T07:24:53.125Z,958.87
2017-03-21T07:26:02.804Z,958.79
2017-03-21T07:27:11.877Z,958.75
2017-03-21T07:28:20.941Z,958.75
2017-03-21T07:29:29.698Z,958.82
2017-03-21T07:30:38.468Z,958.92
2017-03-21T07:31:47.236Z,958.94
2017-03-21T07:32:56.899Z,958.95
2017-03-21T07:34:05.921Z,958.97
2017-03-21T07:35:15.595Z,958.91
2017-03-21T07:36:24.962Z,958.88
2017-03-21T07:37:33.723Z,958.91
2017-03-21T07:38:43.392Z,958.89
2017-03-21T07:39:52.714Z,958.87
2017-03-21T07:41:02.387Z,958.95
2017-03-21T07:42:11.132Z,958.94
2017-03-21T07:43:20.799Z,958.9
2017-03-21T07:44:31.085Z,958.87
2017-03-21T07:45:39.854Z,958.91
2017-03-21T07:46:48.603Z,958.88
2017-03-21T07:47:57.950Z,958.89
2017-03-21T07:49:07.021Z,958.9
2017-03-21T07:50:17.318Z,958.93
2017-03-21T07:51:26.332Z,958.9
2017-03-21T07:52:35.091Z,958.9
2017-03-21T07:53:45.083Z,958.92
2017-03-21T07:54:54.754Z,958.97
2017-03-21T07:56:04.377Z,958.94
2017-03-21T07:57:13.129Z,958.95
2017-03-21T07:58:23.058Z,958.97
2017-03-21T07:59:32.738Z,958.99
2017-03-21T08:00:41.810Z,958.95
2017-03-21T08:01:50.582Z,959
2017-03-21T08:02:59.652Z,959.01
2017-03-21T08:04:08.404Z,959.03
2017-03-21T08:05:17.749Z,959
2017-03-21T08:06:26.822Z,958.97
2017-03-21T08:07:35.578Z,958.98
2017-03-21T08:08:45.496Z,959.05
2017-03-21T08:09:55.709Z,959
2017-03-21T08:11:05.007Z,958.97
2017-03-21T08:12:14.019Z,959.02
2017-03-21T08:13:23.703Z,959.05
2017-03-21T08:14:33.674Z,958.99
2017-03-21T08:15:42.686Z,959.06
2017-03-21T08:16:51.758Z,959.11
2017-03-21T08:18:00.520Z,959.04
2017-03-21T08:19:10.199Z,959.07
2017-03-21T08:20:19.279Z,959.12
2017-03-21T08:21:28.346Z,959.07
2017-03-21T08:22:37.720Z,959.07
2017-03-21T08:23:47.403Z,959.09
2017-03-21T08:24:57.734Z,959.12
2017-03-21T08:26:07.122Z,959.12
2017-03-21T08:27:15.856Z,959.09
2017-03-21T08:28:25.539Z,959.06
2017-03-21T08:29:35.521Z,959.09
2017-03-21T08:30:44.902Z,959.12
2017-03-21T08:31:53.658Z,959.11
2017-03-21T08:33:02.722Z,959.1
2017-03-21T08:34:11.481Z,959.17
2017-03-21T08:35:20.542Z,959.14
2017-03-21T08:36:29.310Z,959.14
2017-03-21T08:37:38.075Z,959.2
2017-03-21T08:38:46.847Z,959.19
2017-03-21T08:39:56.777Z,959.21
2017-03-21T08:41:06.146Z,959.24
2017-03-21T08:42:14.906Z,959.23
2017-03-21T08:43:23.973Z,959.3
2017-03-21T08:44:33.333Z,959.22
2017-03-21T08:45:42.108Z,959.25
2017-03-21T08:46:50.873Z,959.22
2017-03-21T08:47:59.624Z,959.24
2017-03-21T08:49:08.333Z,959.21
2017-03-21T08:50:17.390Z,959.21
2017-03-21T08:51:26.446Z,959.2
2017-03-21T08:52:35.148Z,959.23
2017-03-21T08:53:43.916Z,959.22
2017-03-21T08:54:52.997Z,959.24
2017-03-21T08:56:01.753Z,959.24
2017-03-21T08:57:10.520Z,959.28
2017-03-21T08:58:19.226Z,959.26
2017-03-21T08:59:28.585Z,959.24
2017-03-21T09:00:37.295Z,959.23
2017-03-21T09:01:46.365Z,959.27
2017-03-21T09:02:55.145Z,959.29
2017-03-21T09:04:04.206Z,959.3
2017-03-21T09:05:12.967Z,959.24
2017-03-21T09:06:21.735Z,959.29
2017-03-21T09:07:30.790Z,959.25
2017-03-21T09:08:39.813Z,959.27
2017-03-21T09:09:48.879Z,959.26
2017-03-21T09:10:57.899Z,959.27
2017-03-21T09:12:07.274Z,959.29
2017-03-21T09:13:16.033Z,959.25
2017-03-21T09:14:25.101Z,959.32
2017-03-21T09:15:34.100Z,959.31
2017-03-21T09:16:42.805Z,959.28
2017-03-21T09:17:51.875Z,959.29
2017-03-21T09:19:00.624Z,959.22
2017-03-21T09:20:09.630Z,959.28
2017-03-21T09:21:18.387Z,959.34
2017-03-21T09:22:27.342Z,959.29
2017-03-21T09:23:36.117Z,959.32
2017-03-21T09:24:45.487Z,959.33
2017-03-21T09:25:54.559Z,959.4
2017-03-21T09:27:03.619Z,959.38
2017-03-21T09:28:12.627Z,959.37
2017-03-21T09:29:21.995Z,959.4
2017-03-21T09:30:30.764Z,959.36
2017-03-21T09:31:39.519Z,959.33
2017-03-21T09:32:48.487Z,959.35
2017-03-21T09:33:57.559Z,959.32
2017-03-21T09:35:06.319Z,959.35
2017-03-21T09:36:15.330Z,959.43
2017-03-21T09:37:24.402Z,959.4
2017-03-21T09:38:33.167Z,959.4
2017-03-21T09:39:42.540Z,959.35
2017-03-21T09:40:51.905Z,959.37
2017-03-21T09:42:00.603Z,959.38
2017-03-21T09:43:09.546Z,959.41
2017-03-21T09:44:18.623Z,959.43
2017-03-21T09:45:27.994Z,959.44
2017-03-21T09:46:36.745Z,959.4
2017-03-21T09:47:45.803Z,959.42
2017-03-21T09:48:54.562Z,959.44
2017-03-21T09:50:03.623Z,959.43
2017-03-21T09:51:12.689Z,959.42
2017-03-21T09:52:21.447Z,959.39
2017-03-21T09:53:30.207Z,959.44
2017-03-21T09:54:39.522Z,959.53
2017-03-21T09:55:48.290Z,959.62
2017-03-21T09:56:57.039Z,959.63
2017-03-21T09:58:05.748Z,959.77
2017-03-21T09:59:14.825Z,959.76
2017-03-21T10:00:23.589Z,959.75
2017-03-21T10:01:32.350Z,959.73
2017-03-21T10:02:41.115Z,959.74
2017-03-21T10:03:50.474Z,959.76
2017-03-21T10:04:59.790Z,959.73
2017-03-21T10:06:08.848Z,959.73
2017-03-21T10:07:17.620Z,959.77
2017-03-21T10:08:26.639Z,959.79
2017-03-21T10:09:36.014Z,959.77
2017-03-21T10:10:44.981Z,959.72
2017-03-21T10:11:54.061Z,959.77
2017-03-21T10:13:02.819Z,959.82
2017-03-21T10:14:11.525Z,959.81
2017-03-21T10:15:20.286Z,959.88
2017-03-21T10:16:29.751Z,959.86
2017-03-21T10:17:38.509Z,959.82
2017-03-21T10:18:47.266Z,959.79
2017-03-21T10:19:56.336Z,959.89
2017-03-21T10:21:05.337Z,959.88
2017-03-21T10:22:14.049Z,959.96
2017-03-21T10:23:23.111Z,959.94
2017-03-21T10:24:32.177Z,959.91
2017-03-21T10:25:41.258Z,959.9
2017-03-21T10:26:50.020Z,959.9
2017-03-21T10:27:58.778Z,959.97
2017-03-21T10:29:07.861Z,959.96
2017-03-21T10:30:16.627Z,959.97
2017-03-21T10:31:25.699Z,960.02
2017-03-21T10:32:34.460Z,960.04
2017-03-21T10:33:43.511Z,960
2017-03-21T10:34:52.320Z,960.07
2017-03-21T10:36:01.705Z,960.03
2017-03-21T10:37:10.471Z,960.09
2017-03-21T10:38:19.247Z,960.05
2017-03-21T10:39:28.596Z,960.03
2017-03-21T10:40:37.607Z,960.03
2017-03-21T10:41:46.366Z,960.09
2017-03-21T10:42:55.131Z,960.1
2017-03-21T10:44:04.198Z,960.08
2017-03-21T10:45:13.260Z,960.11
2017-03-21T10:46:21.967Z,960.13
2017-03-21T10:47:30.729Z,960.11
2017-03-21T10:48:39.480Z,960.12
2017-03-21T10:49:48.492Z,960.11
2017-03-21T10:50:57.240Z,960.15
2017-03-21T10:52:05.945Z,960.14
2017-03-21T10:53:14.704Z,960.23
2017-03-21T10:54:23.471Z,960.18
2017-03-21T10:55:32.382Z,960.19
2017-03-21T10:56:41.131Z,960.21
2017-03-21T10:57:49.840Z,960.16
2017-03-21T10:58:58.602Z,960.16
2017-03-21T11:00:07.363Z,960.14
2017-03-21T11:01:16.124Z,960.18
2017-03-21T11:02:25.204Z,960.19
2017-03-21T11:03:33.983Z,960.25
2017-03-21T11:04:42.744Z,960.24
2017-03-21T11:05:51.800Z,960.23
2017-03-21T11:07:00.561Z,960.21
2017-03-21T11:08:09.627Z,960.21
2017-03-21T11:09:18.405Z,960.2
2017-03-21T11:10:27.159Z,960.25
2017-03-21T11:11:35.880Z,960.25
2017-03-21T11:12:44.641Z,960.26
2017-03-21T11:13:53.746Z,960.25
2017-03-21T11:15:02.512Z,960.28
2017-03-21T11:16:11.291Z,960.32
2017-03-21T11:17:20.059Z,960.34
2017-03-21T11:18:29.409Z,960.35
2017-03-21T11:19:38.731Z,960.33
2017-03-21T11:20:48.109Z,960.36
2017-03-21T11:21:56.866Z,960.39
2017-03-21T11:23:05.937Z,960.39
2017-03-21T11:24:14.698Z,960.37
2017-03-21T11:25:23.759Z,960.46
2017-03-21T11:26:32.777Z,960.43
2017-03-21T11:27:41.541Z,960.43
2017-03-21T11:28:50.611Z,960.42
2017-03-21T11:29:59.381Z,960.43
2017-03-21T11:31:08.754Z,960.39
2017-03-21T11:32:17.519Z,960.39
2017-03-21T11:33:26.927Z,960.37
2017-03-21T11:34:36.284Z,960.4
2017-03-21T11:35:45.036Z,960.37
2017-03-21T11:36:53.805Z,960.36
2017-03-21T11:38:02.874Z,960.43
2017-03-21T11:39:11.640Z,960.42
2017-03-21T11:40:20.407Z,960.46
2017-03-21T11:41:29.476Z,960.46
2017-03-21T11:42:38.240Z,960.46
2017-03-21T11:43:46.999Z,960.47
2017-03-21T11:44:55.754Z,960.43
2017-03-21T11:46:05.063Z,960.43
2017-03-21T11:47:13.819Z,960.42
2017-03-21T11:48:23.077Z,960.41
2017-03-21T11:49:32.143Z,960.39
2017-03-21T11:50:40.907Z,960.37
2017-03-21T11:51:49.669Z,960.35
2017-03-21T11:52:58.428Z,960.37
2017-03-21T11:54:07.186Z,960.41
2017-03-21T11:55:16.247Z,960.41
2017-03-21T11:56:25.549Z,960.41
2017-03-21T11:57:34.253Z,960.4
2017-03-21T11:58:43.518Z,960.35
2017-03-21T11:59:52.786Z,960.36
2017-03-21T12:01:01.870Z,960.31
2017-03-21T12:02:10.935Z,960.35
2017-03-21T12:03:19.704Z,960.36
2017-03-21T12:04:28.453Z,960.34
2017-03-21T12:05:37.770Z,960.33
2017-03-21T12:06:46.524Z,960.33
2017-03-21T12:07:55.239Z,960.29
2017-03-21T12:09:04.205Z,960.34
2017-03-21T12:10:13.880Z,960.28
2017-03-21T12:11:23.265Z,960.24
2017-03-21T12:12:32.341Z,960.33
2017-03-21T12:13:42.023Z,960.31
2017-03-21T12:14:50.769Z,960.3
2017-03-21T12:15:59.477Z,960.33
2017-03-21T12:17:08.246Z,960.34
2017-03-21T12:18:17.321Z,960.32
2017-03-21T12:19:26.087Z,960.32
2017-03-21T12:20:34.798Z,960.32
2017-03-21T12:21:43.564Z,960.31
2017-03-21T12:22:52.625Z,960.32
2017-03-21T12:24:02.002Z,960.32
2017-03-21T12:25:10.773Z,960.34
2017-03-21T12:26:19.535Z,960.38
2017-03-21T12:27:28.602Z,960.33
2017-03-21T12:28:37.657Z,960.34
2017-03-21T12:29:47.280Z,960.37
2017-03-21T12:30:56.963Z,960.39
2017-03-21T12:32:06.036Z,960.39
2017-03-21T12:33:14.798Z,960.4
2017-03-21T12:34:24.168Z,960.45
2017-03-21T12:35:33.486Z,960.45
2017-03-21T12:36:42.562Z,960.41
2017-03-21T12:37:51.320Z,960.41
2017-03-21T12:39:00.681Z,960.45
2017-03-21T12:40:09.388Z,960.42
2017-03-21T12:41:18.755Z,960.48
2017-03-21T12:42:27.819Z,960.49
2017-03-21T12:43:36.885Z,960.53
2017-03-21T12:44:45.954Z,960.56
2017-03-21T12:45:55.024Z,960.51
2017-03-21T12:47:03.790Z,960.51
2017-03-21T12:48:12.538Z,960.47
2017-03-21T12:49:21.857Z,960.51
2017-03-21T12:50:30.617Z,960.49
2017-03-21T12:51:39.373Z,960.52
2017-03-21T12:52:48.128Z,960.48
2017-03-21T12:53:57.196Z,960.48
2017-03-21T12:55:06.566Z,960.49
2017-03-21T12:56:15.523Z,960.51
2017-03-21T12:57:24.298Z,960.51
2017-03-21T12:58:33.672Z,960.55
2017-03-21T12:59:42.436Z,960.55
2017-03-21T13:00:51.203Z,960.54
2017-03-21T13:02:00.278Z,960.57
2017-03-21T13:03:09.059Z,960.56
2017-03-21T13:04:18.136Z,960.63
2017-03-21T13:05:26.901Z,960.56
2017-03-21T13:06:35.655Z,960.47
2017-03-21T13:07:44.726Z,960.48
2017-03-21T13:08:53.787Z,960.51
2017-03-21T13:10:02.838Z,960.55
2017-03-21T13:11:11.544Z,960.53
2017-03-21T13:12:20.812Z,960.48
2017-03-21T13:13:29.570Z,960.49
2017-03-21T13:14:38.274Z,960.45
2017-03-21T13:15:47.343Z,960.44
2017-03-21T13:16:56.097Z,960.52
2017-03-21T13:18:04.813Z,960.5
2017-03-21T13:19:14.187Z,960.52
2017-03-21T13:20:24.475Z,960.55
2017-03-21T13:21:33.855Z,960.57
2017-03-21T13:22:42.910Z,960.56
2017-03-21T13:23:51.922Z,960.61
2017-03-21T13:25:00.691Z,960.6
2017-03-21T13:26:10.052Z,960.58
2017-03-21T13:27:19.429Z,960.62
2017-03-21T13:28:29.004Z,960.56
2017-03-21T13:29:37.769Z,960.6
2017-03-21T13:30:46.526Z,960.6
2017-03-21T13:31:55.581Z,960.61
2017-03-21T13:33:05.211Z,960.62
2017-03-21T13:34:14.586Z,960.64
2017-03-21T13:35:23.652Z,960.65
2017-03-21T13:36:32.860Z,960.66
2017-03-21T13:37:41.916Z,960.63
2017-03-21T13:38:50.939Z,960.63
2017-03-21T13:40:00.314Z,960.69
2017-03-21T13:41:09.693Z,960.77
2017-03-21T13:42:19.373Z,960.76
2017-03-21T13:43:28.449Z,960.81
2017-03-21T13:44:37.213Z,960.81
2017-03-21T13:45:46.302Z,960.79
2017-03-21T13:46:55.060Z,960.79
2017-03-21T13:48:04.125Z,960.82
2017-03-21T13:49:12.884Z,960.77
2017-03-21T13:50:21.857Z,960.78
2017-03-21T13:51:30.613Z,960.83
2017-03-21T13:52:39.377Z,960.76
2017-03-21T13:53:48.752Z,960.79
2017-03-21T13:54:57.808Z,960.78
2017-03-21T13:56:06.503Z,960.8
2017-03-21T13:57:15.522Z,960.8
2017-03-21T13:58:24.591Z,960.81
2017-03-21T13:59:33.641Z,960.85
2017-03-21T14:00:42.362Z,960.89
2017-03-21T14:01:51.407Z,960.88
2017-03-21T14:03:00.170Z,960.86
2017-03-21T14:04:09.239Z,960.9
2017-03-21T14:05:18.613Z,960.94
2017-03-21T14:06:27.666Z,960.91
2017-03-21T14:07:36.376Z,960.89
2017-03-21T14:08:46.053Z,960.93
2017-03-21T14:09:54.811Z,960.9
2017-03-21T14:11:03.878Z,960.93
2017-03-21T14:12:12.944Z,960.91
2017-03-21T14:13:21.702Z,960.98
2017-03-21T14:14:30.461Z,960.98
2017-03-21T14:15:39.224Z,960.89
2017-03-21T14:16:48.277Z,960.93
2017-03-21T14:17:56.988Z,960.93
2017-03-21T14:19:05.746Z,960.9
2017-03-21T14:20:14.503Z,960.91
2017-03-21T14:21:23.267Z,960.95
2017-03-21T14:22:32.342Z,960.94
2017-03-21T14:23:41.308Z,960.93
2017-03-21T14:24:50.689Z,960.93
2017-03-21T14:25:59.764Z,960.99
2017-03-21T14:27:08.528Z,961.03